CPX434 Details

Departure: El Paso International Airport (KELP)
Arrival: Sacramento International Airport (KSMF)
Route: ATKNN5 FLOGS ITUCO Q2 BOILE J50 EHF NURAY SUUTR2


Current Weather Information
KELP 221051Z 20004KT 10SM FEW130 OVC210 12/08 A2997 RMK AO2 SLP099 T01220078
KSMF 221053Z 14008KT 10SM CLR 08/06 A3013 RMK AO2 SLP202 T00830061